createdAt,value
2018-11-07T00:01:17.255Z,81.04
2018-11-07T00:03:48.741Z,81.23
2018-11-07T00:06:17.611Z,81.17
2018-11-07T00:08:46.460Z,81.24
2018-11-07T00:11:15.302Z,81.37
2018-11-07T00:16:57.154Z,81.29
2018-11-07T00:19:26.023Z,81.70
2018-11-07T00:21:55.009Z,82.22
2018-11-07T00:24:23.945Z,82.08
2018-11-07T00:26:52.841Z,81.73
2018-11-07T00:29:21.780Z,81.89
2018-11-07T00:31:51.082Z,82.04
2018-11-07T00:34:19.963Z,82.01
2018-11-07T00:36:48.781Z,82.00
2018-11-07T00:39:17.654Z,81.95
2018-11-07T00:41:46.497Z,82.12
2018-11-07T00:44:15.401Z,82.04
2018-11-07T00:46:44.271Z,82.26
2018-11-07T00:49:13.384Z,82.26
2018-11-07T00:51:42.486Z,82.02
2018-11-07T00:54:11.389Z,81.84
2018-11-07T00:56:40.327Z,82.00
2018-11-07T00:59:09.586Z,81.88
2018-11-07T01:01:38.717Z,81.82
2018-11-07T01:04:08.281Z,81.80
2018-11-07T01:06:37.204Z,81.80
2018-11-07T01:09:11.684Z,81.51
2018-11-07T01:11:41.574Z,81.70
2018-11-07T01:14:10.904Z,81.75
2018-11-07T01:16:39.975Z,82.23
2018-11-07T01:19:09.569Z,82.19
2018-11-07T01:21:38.411Z,81.75
2018-11-07T01:24:07.299Z,82.03
2018-11-07T01:26:36.215Z,81.96
2018-11-07T01:29:05.219Z,82.19
2018-11-07T01:31:35.667Z,81.55
2018-11-07T01:34:04.515Z,81.52
2018-11-07T01:36:33.516Z,81.47
2018-11-07T01:39:02.536Z,81.54
2018-11-07T01:41:31.336Z,81.54
2018-11-07T01:44:00.145Z,81.75
2018-11-07T01:46:29.033Z,81.97
2018-11-07T01:48:57.915Z,81.84
2018-11-07T01:51:26.731Z,81.87
2018-11-07T01:53:55.864Z,82.08
2018-11-07T01:56:24.655Z,82.18
2018-11-07T01:58:53.519Z,82.06
2018-11-07T02:01:22.374Z,82.16
2018-11-07T02:03:51.329Z,81.96
2018-11-07T02:06:20.367Z,82.26
2018-11-07T02:08:49.282Z,81.90
2018-11-07T02:11:18.230Z,82.05
2018-11-07T02:13:47.194Z,82.22
2018-11-07T02:16:16.062Z,82.25
2018-11-07T02:18:45.003Z,82.45
2018-11-07T02:21:13.910Z,82.04
2018-11-07T02:23:43.044Z,81.95
2018-11-07T02:26:11.891Z,82.17
2018-11-07T02:28:40.807Z,82.20
2018-11-07T02:31:09.600Z,81.76
2018-11-07T02:33:38.473Z,82.39
2018-11-07T02:36:07.559Z,82.48
2018-11-07T02:38:36.517Z,82.58
2018-11-07T02:41:05.661Z,82.64
2018-11-07T02:43:34.557Z,82.69
2018-11-07T02:46:03.509Z,82.59
2018-11-07T02:48:36.399Z,82.60
2018-11-07T02:51:05.460Z,82.52
2018-11-07T02:53:34.381Z,82.58
2018-11-07T02:56:03.335Z,82.54
2018-11-07T02:58:32.516Z,82.57
2018-11-07T03:01:01.883Z,82.42
2018-11-07T03:03:31.675Z,82.22
2018-11-07T03:06:00.612Z,81.94
2018-11-07T03:08:32.338Z,82.07
2018-11-07T03:11:02.785Z,82.01
2018-11-07T03:13:32.071Z,82.06
2018-11-07T03:16:01.155Z,81.87
2018-11-07T03:18:30.906Z,82.11
2018-11-07T03:21:00.025Z,81.94
2018-11-07T03:23:28.895Z,82.26
2018-11-07T03:25:57.678Z,81.96
2018-11-07T03:28:26.582Z,82.10
2018-11-07T03:30:55.730Z,82.28
2018-11-07T03:33:24.712Z,81.97
2018-11-07T03:35:53.726Z,82.24
2018-11-07T03:38:23.027Z,82.20
2018-11-07T03:40:51.901Z,82.34
2018-11-07T03:43:20.750Z,82.39
2018-11-07T03:45:54.825Z,82.26
2018-11-07T03:48:23.727Z,82.27
2018-11-07T03:50:52.719Z,82.33
2018-11-07T03:53:21.690Z,82.24
2018-11-07T03:55:50.492Z,82.40
2018-11-07T03:58:19.311Z,82.62
2018-11-07T04:00:48.299Z,82.29
2018-11-07T04:03:17.186Z,82.45
2018-11-07T04:05:53.534Z,82.59
2018-11-07T04:08:23.005Z,82.77
2018-11-07T04:10:51.853Z,82.34
2018-11-07T04:13:20.688Z,82.91
2018-11-07T04:15:49.532Z,82.72
2018-11-07T04:18:18.405Z,83.00
2018-11-07T04:20:47.533Z,82.82
2018-11-07T04:23:16.481Z,82.96
2018-11-07T04:25:45.316Z,82.60
2018-11-07T04:28:14.239Z,82.84
2018-11-07T04:30:43.063Z,82.69
2018-11-07T04:33:11.968Z,82.65
2018-11-07T04:35:40.727Z,82.11
2018-11-07T04:38:09.555Z,82.45
2018-11-07T04:40:38.426Z,82.69
2018-11-07T04:43:07.554Z,83.25
2018-11-07T04:45:36.678Z,82.97
2018-11-07T04:48:10.647Z,82.78
2018-11-07T04:50:39.563Z,83.31
2018-11-07T04:53:08.966Z,83.43
2018-11-07T04:55:37.863Z,83.61
2018-11-07T04:58:06.778Z,83.34
2018-11-07T05:00:35.685Z,83.62
2018-11-07T05:03:04.808Z,83.28
2018-11-07T05:05:34.079Z,83.48
2018-11-07T05:08:02.927Z,83.16
2018-11-07T05:10:31.838Z,83.03
2018-11-07T05:13:01.001Z,83.16
2018-11-07T05:15:29.891Z,83.23
2018-11-07T05:17:58.787Z,83.01
2018-11-07T05:20:27.847Z,83.06
2018-11-07T05:22:59.266Z,83.47
2018-11-07T05:25:28.131Z,82.95
2018-11-07T05:27:57.078Z,83.38
2018-11-07T05:30:25.977Z,83.46
2018-11-07T05:32:54.785Z,83.24
2018-11-07T05:35:23.696Z,83.15
2018-11-07T05:37:52.744Z,83.26
2018-11-07T05:40:21.992Z,82.96
2018-11-07T05:42:50.867Z,82.67
2018-11-07T05:45:19.768Z,83.10
2018-11-07T05:47:48.648Z,83.13
2018-11-07T05:50:17.983Z,82.96
2018-11-07T05:52:46.826Z,82.90
2018-11-07T05:55:15.607Z,83.27
2018-11-07T05:57:44.404Z,82.91
2018-11-07T06:00:13.301Z,82.69
2018-11-07T06:02:42.279Z,83.01
2018-11-07T06:05:12.247Z,83.22
2018-11-07T06:07:41.852Z,83.09
2018-11-07T06:10:12.558Z,83.15
2018-11-07T06:12:41.942Z,83.06
2018-11-07T06:15:12.303Z,82.75
2018-11-07T06:17:41.157Z,82.67
2018-11-07T06:20:11.780Z,82.88
2018-11-07T06:22:40.732Z,82.95
2018-11-07T06:25:09.676Z,82.93
2018-11-07T06:27:38.645Z,82.88
2018-11-07T06:30:10.800Z,82.69
2018-11-07T06:32:39.732Z,82.87
2018-11-07T06:35:09.558Z,82.78
2018-11-07T06:37:38.528Z,82.77
2018-11-07T06:40:09.341Z,82.44
2018-11-07T06:42:38.200Z,82.75
2018-11-07T06:45:07.968Z,82.60
2018-11-07T06:47:36.766Z,83.30
2018-11-07T06:50:07.729Z,82.94
2018-11-07T06:52:36.548Z,81.98
2018-11-07T06:55:06.164Z,81.22
2018-11-07T06:57:35.542Z,81.34
2018-11-07T07:00:04.697Z,80.02
2018-11-07T07:02:33.576Z,80.52
2018-11-07T07:05:02.596Z,79.49
2018-11-07T07:07:33.216Z,75.69
2018-11-07T07:10:02.887Z,73.93
2018-11-07T07:12:31.884Z,73.08
2018-11-07T07:15:00.918Z,70.37
2018-11-07T07:17:29.948Z,69.69
2018-11-07T07:19:58.806Z,69.03
2018-11-07T07:22:28.333Z,69.01
2018-11-07T07:24:58.286Z,68.24
2018-11-07T07:27:27.470Z,66.26
2018-11-07T07:29:59.195Z,64.44
2018-11-07T07:32:28.428Z,63.49
2018-11-07T07:34:57.344Z,63.06
2018-11-07T07:37:26.196Z,63.40
2018-11-07T07:39:55.007Z,62.88
2018-11-07T07:42:23.936Z,60.80
2018-11-07T07:44:56.689Z,60.86
2018-11-07T07:47:25.928Z,59.32
2018-11-07T07:49:54.959Z,59.54
2018-11-07T07:52:26.601Z,57.26
2018-11-07T07:57:45.744Z,56.65
2018-11-07T08:00:16.049Z,55.29
2018-11-07T08:02:46.496Z,54.26
2018-11-07T08:05:15.489Z,54.09
2018-11-07T08:07:44.756Z,54.90
2018-11-07T08:10:15.831Z,52.87
2018-11-07T08:12:45.640Z,52.60
2018-11-07T08:15:15.446Z,51.58
2018-11-07T08:17:44.831Z,51.77
2018-11-07T08:20:15.067Z,51.61
2018-11-07T08:22:44.879Z,50.84
2018-11-07T08:25:13.843Z,49.13
2018-11-07T08:27:42.743Z,49.68
2018-11-07T08:30:14.509Z,50.82
2018-11-07T08:32:43.503Z,50.92
2018-11-07T08:35:13.623Z,51.19
2018-11-07T08:37:43.461Z,50.49
2018-11-07T08:40:15.230Z,48.61
2018-11-07T08:42:44.301Z,48.95
2018-11-07T08:45:17.814Z,48.80
2018-11-07T08:47:47.359Z,48.40
2018-11-07T08:50:17.708Z,48.31
2018-11-07T08:52:47.484Z,48.85
2018-11-07T08:55:19.630Z,48.78
2018-11-07T08:57:48.566Z,48.39
2018-11-07T09:00:19.838Z,48.18
2018-11-07T09:02:48.775Z,49.16
2018-11-07T09:05:18.504Z,48.51
2018-11-07T09:07:48.017Z,49.31
2018-11-07T09:10:18.489Z,49.53
2018-11-07T09:12:47.995Z,49.08
2018-11-07T09:15:18.264Z,49.70
2018-11-07T09:17:47.200Z,49.90
2018-11-07T09:20:18.957Z,50.74
2018-11-07T09:22:47.817Z,50.48
2018-11-07T09:25:17.201Z,48.42
2018-11-07T09:27:46.559Z,47.49
2018-11-07T09:30:16.932Z,47.39
2018-11-07T09:32:46.035Z,47.32
2018-11-07T09:35:15.231Z,46.99
2018-11-07T09:37:44.263Z,46.64
2018-11-07T09:40:15.069Z,46.89
2018-11-07T09:42:45.940Z,47.90
2018-11-07T09:45:16.233Z,46.88
2018-11-07T09:47:45.876Z,47.53
2018-11-07T09:50:15.996Z,46.78
2018-11-07T09:52:45.459Z,47.08
2018-11-07T09:55:16.728Z,47.27
2018-11-07T09:57:45.979Z,47.49
2018-11-07T10:00:17.519Z,47.18
2018-11-07T10:02:47.538Z,48.00
2018-11-07T10:05:19.005Z,47.38
2018-11-07T10:07:48.101Z,47.45
2018-11-07T10:10:19.453Z,47.55
2018-11-07T10:12:48.471Z,46.96
2018-11-07T10:15:18.741Z,46.90
2018-11-07T10:17:47.759Z,46.91
2018-11-07T10:20:18.472Z,46.49
2018-11-07T10:22:47.874Z,47.15
2018-11-07T10:25:16.892Z,46.14
2018-11-07T10:27:46.237Z,48.39
2018-11-07T10:30:21.129Z,48.96
2018-11-07T10:32:50.984Z,48.81
2018-11-07T10:35:19.978Z,49.59
2018-11-07T10:37:49.197Z,49.98
2018-11-07T10:40:22.009Z,50.28
2018-11-07T10:42:52.338Z,50.14
2018-11-07T10:45:21.456Z,49.02
2018-11-07T10:47:51.629Z,49.01
2018-11-07T10:50:22.505Z,50.04
2018-11-07T10:52:52.044Z,49.69
2018-11-07T10:55:20.978Z,48.83
2018-11-07T10:57:49.957Z,47.99
2018-11-07T11:00:27.710Z,49.11
2018-11-07T11:03:07.772Z,49.44
2018-11-07T11:05:36.853Z,49.36
2018-11-07T11:08:06.208Z,49.32
2018-11-07T11:10:35.107Z,48.87
2018-11-07T11:13:04.069Z,48.14
2018-11-07T11:15:33.324Z,47.02
2018-11-07T11:18:02.411Z,46.94
2018-11-07T11:20:31.445Z,47.32
2018-11-07T11:23:00.481Z,47.41
2018-11-07T11:25:29.674Z,47.71
2018-11-07T11:27:58.705Z,46.71
2018-11-07T11:30:27.571Z,46.40
2018-11-07T11:32:56.564Z,46.84
2018-11-07T11:35:25.579Z,47.24
2018-11-07T11:37:54.596Z,46.24
2018-11-07T11:40:23.594Z,46.22
2018-11-07T11:42:53.403Z,47.05
2018-11-07T11:48:13.028Z,48.18
2018-11-07T11:50:41.901Z,47.27
2018-11-07T11:53:10.741Z,46.51
2018-11-07T11:55:39.715Z,47.51
2018-11-07T11:58:08.647Z,47.38
2018-11-07T12:00:37.452Z,46.89
2018-11-07T12:03:06.556Z,47.73
2018-11-07T12:05:35.428Z,47.15
2018-11-07T12:08:04.386Z,47.31
2018-11-07T12:10:33.305Z,46.74
2018-11-07T12:13:03.669Z,46.82
2018-11-07T12:15:33.593Z,46.12
2018-11-07T12:18:03.905Z,46.42
2018-11-07T12:20:32.921Z,46.72
2018-11-07T12:23:04.586Z,46.07
2018-11-07T12:25:34.327Z,47.02
2018-11-07T12:28:03.163Z,47.40
2018-11-07T12:30:32.179Z,47.58
2018-11-07T12:33:01.540Z,48.35
2018-11-07T12:35:30.459Z,48.21
2018-11-07T12:38:00.444Z,47.85
2018-11-07T12:40:29.282Z,47.41
2018-11-07T12:42:58.186Z,47.72
2018-11-07T12:45:27.123Z,48.41
2018-11-07T12:47:56.043Z,48.02
2018-11-07T12:50:25.574Z,47.76
2018-11-07T12:52:54.427Z,47.82
2018-11-07T12:55:23.909Z,47.40
2018-11-07T12:57:52.840Z,47.15
2018-11-07T13:00:23.209Z,48.19
2018-11-07T13:02:57.276Z,48.95
2018-11-07T13:05:26.976Z,48.59
2018-11-07T13:07:57.060Z,49.29
2018-11-07T13:10:25.961Z,49.21
2018-11-07T13:12:55.500Z,48.85
2018-11-07T13:15:24.505Z,49.39
2018-11-07T13:17:53.638Z,50.25
2018-11-07T13:20:25.209Z,49.68
2018-11-07T13:22:54.784Z,49.60
2018-11-07T13:25:24.336Z,48.82
2018-11-07T13:27:53.305Z,48.96
2018-11-07T13:30:22.962Z,48.79
2018-11-07T13:32:53.431Z,48.91
2018-11-07T13:35:22.672Z,49.86
2018-11-07T13:37:57.631Z,48.38
2018-11-07T13:40:27.060Z,49.03
2018-11-07T13:42:56.010Z,49.22
2018-11-07T13:45:24.916Z,49.86
2018-11-07T13:47:54.795Z,49.08
2018-11-07T13:50:23.699Z,48.63
2018-11-07T13:52:55.409Z,49.24
2018-11-07T13:55:24.649Z,48.92
2018-11-07T13:57:54.092Z,48.63
2018-11-07T14:00:24.426Z,49.30
2018-11-07T14:02:54.320Z,49.08
2018-11-07T14:05:23.283Z,49.32
2018-11-07T14:07:52.285Z,48.97
2018-11-07T14:10:24.529Z,49.79
2018-11-07T14:12:53.962Z,50.68
2018-11-07T14:15:23.186Z,50.81
2018-11-07T14:17:52.272Z,51.17
2018-11-07T14:20:26.703Z,51.13
2018-11-07T14:22:55.527Z,51.04
2018-11-07T14:25:24.776Z,51.72
2018-11-07T14:27:53.858Z,52.41
2018-11-07T14:30:22.606Z,53.01
2018-11-07T14:32:58.270Z,52.05
2018-11-07T14:35:27.369Z,53.34
2018-11-07T14:37:58.219Z,53.69
2018-11-07T14:40:27.208Z,54.47
2018-11-07T14:42:56.100Z,54.96
2018-11-07T14:45:25.034Z,55.45
2018-11-07T14:47:54.147Z,55.81
2018-11-07T14:50:23.152Z,56.32
2018-11-07T14:52:52.126Z,55.54
2018-11-07T14:55:21.046Z,56.83
2018-11-07T14:57:50.059Z,56.87
2018-11-07T15:00:19.305Z,57.52
2018-11-07T15:02:48.503Z,57.64
2018-11-07T15:05:19.059Z,58.58
2018-11-07T15:07:47.945Z,58.83
2018-11-07T15:10:17.725Z,59.64
2018-11-07T15:12:46.519Z,60.18
2018-11-07T15:15:16.765Z,60.89
2018-11-07T15:17:45.709Z,61.33
2018-11-07T15:20:15.873Z,60.99
2018-11-07T15:22:44.942Z,61.88
2018-11-07T15:25:15.120Z,61.96
2018-11-07T15:27:45.512Z,61.95
2018-11-07T15:30:15.353Z,62.62
2018-11-07T15:32:44.677Z,62.90
2018-11-07T15:35:14.088Z,63.13
2018-11-07T15:37:43.354Z,63.37
2018-11-07T15:40:15.840Z,64.36
2018-11-07T15:42:45.357Z,64.93
2018-11-07T15:45:16.540Z,64.72
2018-11-07T15:47:45.529Z,65.61
2018-11-07T15:50:19.632Z,66.67
2018-11-07T15:52:48.897Z,66.88
2018-11-07T15:55:18.104Z,66.63
2018-11-07T15:57:47.040Z,67.22
2018-11-07T16:00:17.556Z,67.58
2018-11-07T16:02:46.414Z,68.05
2018-11-07T16:05:16.135Z,68.32
2018-11-07T16:07:45.072Z,68.29
2018-11-07T16:10:15.116Z,68.73
2018-11-07T16:12:44.102Z,68.83
2018-11-07T16:15:14.892Z,69.14
2018-11-07T16:17:44.362Z,69.61
2018-11-07T16:20:20.235Z,70.25
2018-11-07T16:22:49.775Z,71.05
2018-11-07T16:25:18.690Z,70.59
2018-11-07T16:27:47.697Z,71.03
2018-11-07T16:30:18.337Z,70.87
2018-11-07T16:32:47.247Z,70.87
2018-11-07T16:35:16.872Z,70.88
2018-11-07T16:37:46.798Z,71.75
2018-11-07T16:40:16.998Z,72.14
2018-11-07T16:42:46.296Z,71.96
2018-11-07T16:45:16.361Z,71.60
2018-11-07T16:47:47.439Z,72.03
2018-11-07T16:50:17.301Z,72.68
2018-11-07T16:55:36.840Z,73.62
2018-11-07T16:58:05.906Z,73.52
2018-11-07T17:00:35.059Z,74.08
2018-11-07T17:03:03.921Z,73.83
2018-11-07T17:05:32.998Z,74.52
2018-11-07T17:08:02.089Z,75.57
2018-11-07T17:10:33.378Z,75.41
2018-11-07T17:13:02.407Z,75.73
2018-11-07T17:15:31.578Z,76.11
2018-11-07T17:18:00.378Z,76.40
2018-11-07T17:20:29.788Z,76.18
2018-11-07T17:22:58.743Z,75.87
2018-11-07T17:25:27.715Z,75.12
2018-11-07T17:27:56.841Z,75.52
2018-11-07T17:30:25.874Z,76.43
2018-11-07T17:32:54.827Z,77.03
2018-11-07T17:35:23.720Z,76.77
2018-11-07T17:37:53.769Z,77.09
2018-11-07T17:40:23.977Z,77.18
2018-11-07T17:42:53.611Z,77.35
2018-11-07T17:45:23.344Z,77.38
2018-11-07T17:47:53.132Z,77.55
2018-11-07T17:50:22.757Z,76.91
2018-11-07T17:52:52.672Z,77.21
2018-11-07T17:55:22.398Z,76.67
2018-11-07T17:57:51.457Z,77.45
2018-11-07T18:00:21.800Z,77.91
2018-11-07T18:02:50.846Z,77.93
2018-11-07T18:05:19.817Z,77.91
2018-11-07T18:07:48.698Z,77.94
2018-11-07T18:10:18.622Z,78.39
2018-11-07T18:12:47.800Z,77.79
2018-11-07T18:15:16.721Z,79.05
2018-11-07T18:17:45.610Z,78.61
2018-11-07T18:20:15.537Z,78.30
2018-11-07T18:22:44.370Z,78.77
2018-11-07T18:25:14.513Z,78.85
2018-11-07T18:27:43.736Z,79.44
2018-11-07T18:30:14.228Z,79.37
2018-11-07T18:32:43.473Z,80.00
2018-11-07T18:35:14.278Z,79.88
2018-11-07T18:37:43.554Z,79.93
2018-11-07T18:40:14.098Z,80.02
2018-11-07T18:42:43.059Z,80.12
2018-11-07T18:45:12.921Z,80.48
2018-11-07T18:47:43.079Z,80.40
2018-11-07T18:50:13.672Z,80.30
2018-11-07T18:52:42.649Z,79.92
2018-11-07T18:55:12.991Z,79.95
2018-11-07T18:57:42.509Z,80.08
2018-11-07T19:00:14.794Z,79.86
2018-11-07T19:02:44.140Z,80.00
2018-11-07T19:05:13.367Z,80.25
2018-11-07T19:07:42.508Z,80.22
2018-11-07T19:10:14.600Z,80.39
2018-11-07T19:12:43.915Z,80.22
2018-11-07T19:15:14.853Z,80.18
2018-11-07T19:17:44.905Z,80.45
2018-11-07T19:20:15.410Z,80.48
2018-11-07T19:22:54.070Z,80.45
2018-11-07T19:25:23.028Z,79.96
2018-11-07T19:27:53.662Z,80.28
2018-11-07T19:30:24.725Z,80.42
2018-11-07T19:32:54.425Z,80.48
2018-11-07T19:35:23.682Z,80.35
2018-11-07T19:37:53.082Z,80.08
2018-11-07T19:40:24.246Z,80.47
2018-11-07T19:42:53.417Z,80.33
2018-11-07T19:45:22.931Z,80.23
2018-11-07T19:47:51.971Z,80.24
2018-11-07T19:50:21.529Z,80.12
2018-11-07T19:52:51.008Z,80.11
2018-11-07T19:55:21.506Z,80.28
2018-11-07T19:57:53.610Z,80.00
2018-11-07T20:00:23.056Z,80.54
2018-11-07T20:02:51.975Z,80.92
2018-11-07T20:05:21.679Z,81.24
2018-11-07T20:07:52.419Z,81.31
2018-11-07T20:10:22.216Z,81.63
2018-11-07T20:12:51.082Z,81.17
2018-11-07T20:15:21.163Z,81.24
2018-11-07T20:17:50.282Z,81.18
2018-11-07T20:20:19.216Z,81.14
2018-11-07T20:22:48.651Z,81.56
2018-11-07T20:25:17.539Z,80.96
2018-11-07T20:27:47.370Z,80.82
2018-11-07T20:30:17.875Z,80.98
2018-11-07T20:32:46.719Z,80.88
2018-11-07T20:35:17.154Z,80.93
2018-11-07T20:37:46.664Z,81.04
2018-11-07T20:40:19.911Z,80.78
2018-11-07T20:42:48.932Z,80.92
2018-11-07T20:45:18.826Z,80.91
2018-11-07T20:47:47.791Z,80.73
2018-11-07T20:50:18.054Z,80.82
2018-11-07T20:52:47.435Z,80.69
2018-11-07T20:55:17.074Z,80.84
2018-11-07T20:57:45.975Z,80.68
2018-11-07T21:00:18.155Z,80.60
2018-11-07T21:02:47.533Z,80.53
2018-11-07T21:05:16.828Z,80.11
2018-11-07T21:07:45.797Z,80.66
2018-11-07T21:10:17.216Z,80.48
2018-11-07T21:12:46.366Z,80.75
2018-11-07T21:15:16.487Z,80.78
2018-11-07T21:17:46.354Z,80.84
2018-11-07T21:20:15.449Z,80.75
2018-11-07T21:22:44.690Z,80.84
2018-11-07T21:25:14.245Z,80.51
2018-11-07T21:27:43.700Z,80.65
2018-11-07T21:30:14.059Z,80.47
2018-11-07T21:32:43.220Z,80.62
2018-11-07T21:35:12.334Z,80.64
2018-11-07T21:37:41.525Z,80.89
2018-11-07T21:40:12.194Z,80.79
2018-11-07T21:42:40.954Z,80.54
2018-11-07T21:45:11.894Z,80.90
2018-11-07T21:47:41.385Z,80.87
2018-11-07T21:50:11.887Z,81.20
2018-11-07T21:52:40.979Z,80.95
2018-11-07T21:55:09.902Z,80.89
2018-11-07T21:57:39.520Z,80.73
2018-11-07T22:02:59.427Z,81.08
2018-11-07T22:05:28.269Z,80.62
2018-11-07T22:07:57.258Z,80.54
2018-11-07T22:10:26.096Z,80.38
2018-11-07T22:12:54.970Z,80.27
2018-11-07T22:15:23.911Z,80.33
2018-11-07T22:17:52.821Z,80.67
2018-11-07T22:20:22.919Z,80.90
2018-11-07T22:22:51.807Z,81.19
2018-11-07T22:25:20.851Z,81.23
2018-11-07T22:27:49.848Z,81.25
2018-11-07T22:30:19.046Z,81.16
2018-11-07T22:32:47.874Z,81.14
2018-11-07T22:35:18.052Z,81.32
2018-11-07T22:37:47.480Z,81.53
2018-11-07T22:40:17.504Z,81.51
2018-11-07T22:42:46.573Z,81.25
2018-11-07T22:45:15.847Z,81.25
2018-11-07T22:47:44.817Z,81.05
2018-11-07T22:50:14.749Z,81.34
2018-11-07T22:52:44.448Z,81.56
2018-11-07T22:55:13.325Z,81.31
2018-11-07T22:57:42.151Z,81.27
2018-11-07T23:00:19.062Z,80.85
2018-11-07T23:02:48.637Z,81.13
2018-11-07T23:05:18.099Z,81.31
2018-11-07T23:07:47.120Z,81.13
2018-11-07T23:10:16.337Z,81.56
2018-11-07T23:12:45.209Z,81.93
2018-11-07T23:16:17.107Z,82.16
2018-11-07T23:18:45.906Z,82.15
2018-11-07T23:21:14.820Z,82.39
2018-11-07T23:23:43.676Z,82.12
2018-11-07T23:26:12.566Z,82.17
2018-11-07T23:28:44.279Z,81.47
2018-11-07T23:31:13.199Z,81.63
2018-11-07T23:42:20.292Z,81.93
2018-11-07T23:44:49.149Z,81.87
2018-11-07T23:47:18.047Z,82.30
2018-11-07T23:49:46.984Z,82.58
2018-11-07T23:52:20.937Z,82.63
2018-11-07T23:54:50.257Z,82.28
2018-11-07T23:57:19.113Z,81.77
2018-11-07T23:59:48.134Z,81.65
